Terminal Aerodrome Forecast
Issued by NWS Tallahassee, FL

Home | Current Version | Previous Version | Text Only | Print | Product List | Glossary On
Versions: 1 2 3 4 5 6 7 8 9 10 11 12 13 14
000
FTUS42 KTAE 100500
TAFTLH
TAF
KTLH 100536Z 1006/1106 27003KT P6SM BKN250
     FM101400 24007KT 6SM -TSRA BKN040CB
      TEMPO 1018/1022 3SM +TSRA
     FM110200 23003KT P6SM BKN100 OVC250=

USA.gov is the U.S. government's official web portal to all federal, state and local government web resources and services.